sensor_id;sensor_type;location;lat;lon;timestamp;P1;durP1;ratioP1;P2;durP2;ratioP2
75971;SDS011;64651;47.540;19.088;2023-05-25T00:02:38;15.25;;;9.13;;
75971;SDS011;64651;47.540;19.088;2023-05-25T00:07:41;14.63;;;8.38;;
75971;SDS011;64651;47.540;19.088;2023-05-25T00:12:43;16.08;;;8.68;;
75971;SDS011;64651;47.540;19.088;2023-05-25T00:17:46;16.17;;;8.77;;
75971;SDS011;64651;47.540;19.088;2023-05-25T00:22:49;15.60;;;9.23;;
75971;SDS011;64651;47.540;19.088;2023-05-25T00:27:53;16.62;;;9.23;;
75971;SDS011;64651;47.540;19.088;2023-05-25T00:32:55;15.13;;;9.05;;
75971;SDS011;64651;47.540;19.088;2023-05-25T00:37:57;16.08;;;9.70;;
75971;SDS011;64651;47.540;19.088;2023-05-25T00:42:59;17.53;;;9.17;;
75971;SDS011;64651;47.540;19.088;2023-05-25T00:48:02;15.10;;;9.05;;
75971;SDS011;64651;47.540;19.088;2023-05-25T00:53:06;15.63;;;9.38;;
75971;SDS011;64651;47.540;19.088;2023-05-25T00:58:10;15.65;;;8.77;;
75971;SDS011;64651;47.540;19.088;2023-05-25T01:03:13;16.75;;;9.07;;
75971;SDS011;64651;47.540;19.088;2023-05-25T01:08:19;16.30;;;9.77;;
75971;SDS011;64651;47.540;19.088;2023-05-25T01:13:23;16.80;;;9.30;;
75971;SDS011;64651;47.540;19.088;2023-05-25T01:18:26;16.23;;;9.13;;
75971;SDS011;64651;47.540;19.088;2023-05-25T01:23:30;17.55;;;9.40;;
75971;SDS011;64651;47.540;19.088;2023-05-25T01:28:37;16.80;;;9.32;;
75971;SDS011;64651;47.540;19.088;2023-05-25T01:33:43;17.27;;;9.03;;
75971;SDS011;64651;47.540;19.088;2023-05-25T01:38:47;19.75;;;9.93;;
75971;SDS011;64651;47.540;19.088;2023-05-25T01:43:51;16.70;;;9.38;;
75971;SDS011;64651;47.540;19.088;2023-05-25T01:48:56;16.15;;;9.18;;
75971;SDS011;64651;47.540;19.088;2023-05-25T01:54:18;17.62;;;9.90;;
75971;SDS011;64651;47.540;19.088;2023-05-25T01:59:21;17.57;;;9.53;;
75971;SDS011;64651;47.540;19.088;2023-05-25T02:04:25;21.08;;;9.88;;
75971;SDS011;64651;47.540;19.088;2023-05-25T02:09:28;19.92;;;10.30;;
75971;SDS011;64651;47.540;19.088;2023-05-25T02:14:30;18.52;;;10.25;;
75971;SDS011;64651;47.540;19.088;2023-05-25T02:19:34;18.37;;;10.48;;
75971;SDS011;64651;47.540;19.088;2023-05-25T02:24:37;18.13;;;10.07;;
75971;SDS011;64651;47.540;19.088;2023-05-25T02:29:39;20.20;;;10.38;;
75971;SDS011;64651;47.540;19.088;2023-05-25T02:34:41;17.87;;;9.82;;
75971;SDS011;64651;47.540;19.088;2023-05-25T02:39:44;18.80;;;10.18;;
75971;SDS011;64651;47.540;19.088;2023-05-25T02:44:46;20.85;;;9.82;;
75971;SDS011;64651;47.540;19.088;2023-05-25T02:49:49;18.33;;;9.97;;
75971;SDS011;64651;47.540;19.088;2023-05-25T02:54:52;20.05;;;9.63;;
75971;SDS011;64651;47.540;19.088;2023-05-25T02:59:54;21.42;;;10.18;;
75971;SDS011;64651;47.540;19.088;2023-05-25T03:04:57;17.73;;;9.65;;
75971;SDS011;64651;47.540;19.088;2023-05-25T03:10:04;21.95;;;10.75;;
75971;SDS011;64651;47.540;19.088;2023-05-25T03:15:07;19.90;;;10.50;;
75971;SDS011;64651;47.540;19.088;2023-05-25T03:20:10;20.90;;;10.32;;
75971;SDS011;64651;47.540;19.088;2023-05-25T03:25:12;19.17;;;10.35;;
75971;SDS011;64651;47.540;19.088;2023-05-25T03:30:14;20.70;;;10.70;;
75971;SDS011;64651;47.540;19.088;2023-05-25T03:35:17;19.23;;;9.50;;
75971;SDS011;64651;47.540;19.088;2023-05-25T03:40:19;21.57;;;10.73;;
75971;SDS011;64651;47.540;19.088;2023-05-25T03:45:22;18.55;;;9.80;;
75971;SDS011;64651;47.540;19.088;2023-05-25T03:50:24;21.50;;;10.27;;
75971;SDS011;64651;47.540;19.088;2023-05-25T03:55:26;17.92;;;9.57;;
75971;SDS011;64651;47.540;19.088;2023-05-25T04:00:29;18.85;;;10.07;;
75971;SDS011;64651;47.540;19.088;2023-05-25T04:05:31;17.93;;;9.77;;
75971;SDS011;64651;47.540;19.088;2023-05-25T04:10:34;17.85;;;9.60;;
75971;SDS011;64651;47.540;19.088;2023-05-25T04:15:36;19.92;;;10.40;;
75971;SDS011;64651;47.540;19.088;2023-05-25T04:20:38;18.50;;;9.43;;
75971;SDS011;64651;47.540;19.088;2023-05-25T04:25:41;19.75;;;9.95;;
75971;SDS011;64651;47.540;19.088;2023-05-25T04:30:44;17.93;;;9.23;;
75971;SDS011;64651;47.540;19.088;2023-05-25T04:35:46;17.08;;;9.63;;
75971;SDS011;64651;47.540;19.088;2023-05-25T04:40:50;18.08;;;9.43;;
75971;SDS011;64651;47.540;19.088;2023-05-25T04:45:55;15.55;;;8.98;;
75971;SDS011;64651;47.540;19.088;2023-05-25T04:50:58;17.05;;;9.13;;
75971;SDS011;64651;47.540;19.088;2023-05-25T04:56:05;15.53;;;8.70;;
75971;SDS011;64651;47.540;19.088;2023-05-25T05:01:07;16.60;;;9.23;;
75971;SDS011;64651;47.540;19.088;2023-05-25T05:06:09;16.80;;;9.68;;
75971;SDS011;64651;47.540;19.088;2023-05-25T05:11:12;18.35;;;9.93;;
75971;SDS011;64651;47.540;19.088;2023-05-25T05:16:14;16.25;;;9.15;;
75971;SDS011;64651;47.540;19.088;2023-05-25T05:21:16;15.30;;;9.87;;
75971;SDS011;64651;47.540;19.088;2023-05-25T05:26:18;16.37;;;9.48;;
75971;SDS011;64651;47.540;19.088;2023-05-25T05:31:22;16.48;;;9.55;;
75971;SDS011;64651;47.540;19.088;2023-05-25T05:36:25;16.65;;;9.35;;
75971;SDS011;64651;47.540;19.088;2023-05-25T05:41:30;16.23;;;8.93;;
75971;SDS011;64651;47.540;19.088;2023-05-25T05:46:32;21.53;;;11.10;;
75971;SDS011;64651;47.540;19.088;2023-05-25T05:51:34;16.73;;;9.70;;
75971;SDS011;64651;47.540;19.088;2023-05-25T05:56:36;16.27;;;10.18;;
75971;SDS011;64651;47.540;19.088;2023-05-25T06:01:39;17.00;;;9.53;;
75971;SDS011;64651;47.540;19.088;2023-05-25T06:06:43;16.48;;;9.68;;
75971;SDS011;64651;47.540;19.088;2023-05-25T06:11:46;16.23;;;9.90;;
75971;SDS011;64651;47.540;19.088;2023-05-25T06:16:48;13.88;;;9.15;;
75971;SDS011;64651;47.540;19.088;2023-05-25T06:21:52;16.00;;;9.20;;
75971;SDS011;64651;47.540;19.088;2023-05-25T06:26:54;15.38;;;8.73;;
75971;SDS011;64651;47.540;19.088;2023-05-25T06:31:56;15.95;;;9.50;;
75971;SDS011;64651;47.540;19.088;2023-05-25T06:36:58;15.33;;;9.13;;
75971;SDS011;64651;47.540;19.088;2023-05-25T06:42:07;15.00;;;9.20;;
75971;SDS011;64651;47.540;19.088;2023-05-25T06:47:10;15.00;;;9.10;;
75971;SDS011;64651;47.540;19.088;2023-05-25T06:52:12;17.03;;;9.03;;
75971;SDS011;64651;47.540;19.088;2023-05-25T06:57:15;14.25;;;7.78;;
75971;SDS011;64651;47.540;19.088;2023-05-25T07:02:17;13.40;;;8.03;;
75971;SDS011;64651;47.540;19.088;2023-05-25T07:07:21;12.75;;;8.45;;
75971;SDS011;64651;47.540;19.088;2023-05-25T07:12:23;15.68;;;8.13;;
75971;SDS011;64651;47.540;19.088;2023-05-25T07:17:25;12.90;;;7.53;;
75971;SDS011;64651;47.540;19.088;2023-05-25T07:22:29;12.57;;;7.78;;
75971;SDS011;64651;47.540;19.088;2023-05-25T07:27:31;12.90;;;8.13;;
75971;SDS011;64651;47.540;19.088;2023-05-25T07:32:34;13.38;;;8.40;;
75971;SDS011;64651;47.540;19.088;2023-05-25T07:37:36;13.30;;;7.68;;
75971;SDS011;64651;47.540;19.088;2023-05-25T07:42:39;14.73;;;8.37;;
75971;SDS011;64651;47.540;19.088;2023-05-25T07:47:41;14.18;;;7.93;;
75971;SDS011;64651;47.540;19.088;2023-05-25T07:52:43;15.33;;;8.90;;
75971;SDS011;64651;47.540;19.088;2023-05-25T07:57:46;12.50;;;8.60;;
75971;SDS011;64651;47.540;19.088;2023-05-25T08:02:48;13.93;;;9.30;;
75971;SDS011;64651;47.540;19.088;2023-05-25T08:07:51;12.50;;;8.83;;
75971;SDS011;64651;47.540;19.088;2023-05-25T08:12:53;13.43;;;9.07;;
75971;SDS011;64651;47.540;19.088;2023-05-25T08:17:57;13.90;;;10.07;;
75971;SDS011;64651;47.540;19.088;2023-05-25T08:23:00;14.18;;;10.13;;
75971;SDS011;64651;47.540;19.088;2023-05-25T08:28:02;12.60;;;10.30;;
75971;SDS011;64651;47.540;19.088;2023-05-25T08:33:05;12.23;;;10.40;;
75971;SDS011;64651;47.540;19.088;2023-05-25T08:38:08;11.88;;;10.65;;
75971;SDS011;64651;47.540;19.088;2023-05-25T08:43:10;12.13;;;10.83;;
75971;SDS011;64651;47.540;19.088;2023-05-25T08:48:13;11.77;;;9.95;;
75971;SDS011;64651;47.540;19.088;2023-05-25T08:53:38;14.13;;;12.07;;
75971;SDS011;64651;47.540;19.088;2023-05-25T08:58:44;13.93;;;12.53;;
75971;SDS011;64651;47.540;19.088;2023-05-25T09:03:53;13.52;;;12.18;;
75971;SDS011;64651;47.540;19.088;2023-05-25T09:08:58;14.33;;;12.83;;
75971;SDS011;64651;47.540;19.088;2023-05-25T09:14:00;15.77;;;14.35;;
75971;SDS011;64651;47.540;19.088;2023-05-25T09:19:02;16.80;;;15.10;;
75971;SDS011;64651;47.540;19.088;2023-05-25T09:24:04;18.23;;;14.17;;
75971;SDS011;64651;47.540;19.088;2023-05-25T09:29:08;14.60;;;12.75;;
75971;SDS011;64651;47.540;19.088;2023-05-25T09:34:11;16.90;;;13.40;;
75971;SDS011;64651;47.540;19.088;2023-05-25T09:39:13;13.43;;;12.02;;
75971;SDS011;64651;47.540;19.088;2023-05-25T09:44:18;14.23;;;12.45;;
75971;SDS011;64651;47.540;19.088;2023-05-25T09:49:20;14.00;;;12.57;;
75971;SDS011;64651;47.540;19.088;2023-05-25T09:54:23;12.93;;;11.63;;
75971;SDS011;64651;47.540;19.088;2023-05-25T09:59:27;14.60;;;12.50;;
75971;SDS011;64651;47.540;19.088;2023-05-25T10:04:29;14.43;;;12.35;;
75971;SDS011;64651;47.540;19.088;2023-05-25T10:09:34;12.98;;;11.57;;
75971;SDS011;64651;47.540;19.088;2023-05-25T10:14:42;14.37;;;12.80;;
75971;SDS011;64651;47.540;19.088;2023-05-25T10:19:50;13.77;;;11.80;;
75971;SDS011;64651;47.540;19.088;2023-05-25T10:30:17;12.63;;;10.60;;
75971;SDS011;64651;47.540;19.088;2023-05-25T10:35:20;13.30;;;10.50;;
75971;SDS011;64651;47.540;19.088;2023-05-25T10:40:23;19.50;;;12.30;;
75971;SDS011;64651;47.540;19.088;2023-05-25T10:45:25;12.50;;;11.20;;
75971;SDS011;64651;47.540;19.088;2023-05-25T10:50:28;12.93;;;10.73;;
75971;SDS011;64651;47.540;19.088;2023-05-25T11:01:01;14.38;;;12.02;;
75971;SDS011;64651;47.540;19.088;2023-05-25T11:06:04;13.13;;;11.83;;
75971;SDS011;64651;47.540;19.088;2023-05-25T11:11:06;14.35;;;12.77;;
75971;SDS011;64651;47.540;19.088;2023-05-25T11:16:18;12.47;;;11.27;;
75971;SDS011;64651;47.540;19.088;2023-05-25T11:21:41;13.95;;;9.98;;
75971;SDS011;64651;47.540;19.088;2023-05-25T11:26:57;11.10;;;9.10;;
75971;SDS011;64651;47.540;19.088;2023-05-25T11:32:02;11.33;;;10.13;;
75971;SDS011;64651;47.540;19.088;2023-05-25T11:37:04;12.43;;;10.10;;
75971;SDS011;64651;47.540;19.088;2023-05-25T11:42:07;14.23;;;11.27;;
75971;SDS011;64651;47.540;19.088;2023-05-25T11:47:12;11.77;;;10.57;;
75971;SDS011;64651;47.540;19.088;2023-05-25T11:52:16;12.40;;;10.73;;
75971;SDS011;64651;47.540;19.088;2023-05-25T11:57:20;12.17;;;10.97;;
75971;SDS011;64651;47.540;19.088;2023-05-25T12:02:26;11.63;;;10.40;;
75971;SDS011;64651;47.540;19.088;2023-05-25T12:07:29;13.30;;;11.97;;
75971;SDS011;64651;47.540;19.088;2023-05-25T12:17:42;14.40;;;13.10;;
75971;SDS011;64651;47.540;19.088;2023-05-25T12:22:45;14.87;;;13.57;;
75971;SDS011;64651;47.540;19.088;2023-05-25T12:27:48;15.48;;;14.00;;
75971;SDS011;64651;47.540;19.088;2023-05-25T12:33:13;16.50;;;15.10;;
75971;SDS011;64651;47.540;19.088;2023-05-25T12:38:17;14.32;;;13.07;;
75971;SDS011;64651;47.540;19.088;2023-05-25T12:43:20;14.80;;;13.60;;
75971;SDS011;64651;47.540;19.088;2023-05-25T12:48:25;18.90;;;17.08;;
75971;SDS011;64651;47.540;19.088;2023-05-25T12:53:28;14.43;;;13.13;;
75971;SDS011;64651;47.540;19.088;2023-05-25T12:58:32;12.57;;;10.57;;
75971;SDS011;64651;47.540;19.088;2023-05-25T13:03:34;11.43;;;10.23;;
75971;SDS011;64651;47.540;19.088;2023-05-25T13:08:36;11.90;;;10.63;;
75971;SDS011;64651;47.540;19.088;2023-05-25T13:13:40;12.50;;;11.20;;
75971;SDS011;64651;47.540;19.088;2023-05-25T13:18:42;11.32;;;10.18;;
75971;SDS011;64651;47.540;19.088;2023-05-25T13:23:44;11.57;;;10.37;;
75971;SDS011;64651;47.540;19.088;2023-05-25T13:28:47;11.88;;;10.68;;
75971;SDS011;64651;47.540;19.088;2023-05-25T13:33:50;13.90;;;12.60;;
75971;SDS011;64651;47.540;19.088;2023-05-25T13:38:52;13.87;;;12.47;;
75971;SDS011;64651;47.540;19.088;2023-05-25T13:43:54;13.90;;;12.55;;
75971;SDS011;64651;47.540;19.088;2023-05-25T13:48:56;12.70;;;11.50;;
75971;SDS011;64651;47.540;19.088;2023-05-25T13:53:59;14.40;;;13.10;;
75971;SDS011;64651;47.540;19.088;2023-05-25T13:59:02;12.57;;;11.38;;
75971;SDS011;64651;47.540;19.088;2023-05-25T14:04:04;11.80;;;10.60;;
75971;SDS011;64651;47.540;19.088;2023-05-25T14:09:07;10.63;;;9.52;;
75971;SDS011;64651;47.540;19.088;2023-05-25T14:14:12;10.17;;;8.93;;
75971;SDS011;64651;47.540;19.088;2023-05-25T14:19:31;11.73;;;8.45;;
75971;SDS011;64651;47.540;19.088;2023-05-25T14:24:35;10.45;;;8.45;;
75971;SDS011;64651;47.540;19.088;2023-05-25T14:29:38;9.70;;;8.47;;
75971;SDS011;64651;47.540;19.088;2023-05-25T14:34:40;9.25;;;7.95;;
75971;SDS011;64651;47.540;19.088;2023-05-25T14:39:42;9.97;;;8.87;;
75971;SDS011;64651;47.540;19.088;2023-05-25T14:44:44;10.82;;;9.35;;
75971;SDS011;64651;47.540;19.088;2023-05-25T14:49:47;12.70;;;10.02;;
75971;SDS011;64651;47.540;19.088;2023-05-25T14:54:49;12.10;;;9.93;;
75971;SDS011;64651;47.540;19.088;2023-05-25T14:59:51;11.43;;;9.30;;
75971;SDS011;64651;47.540;19.088;2023-05-25T15:04:54;10.77;;;9.67;;
75971;SDS011;64651;47.540;19.088;2023-05-25T15:09:56;10.82;;;9.30;;
75971;SDS011;64651;47.540;19.088;2023-05-25T15:14:58;11.93;;;10.73;;
75971;SDS011;64651;47.540;19.088;2023-05-25T15:20:00;11.37;;;10.17;;
75971;SDS011;64651;47.540;19.088;2023-05-25T15:25:03;10.75;;;9.63;;
75971;SDS011;64651;47.540;19.088;2023-05-25T15:30:05;10.93;;;9.90;;
75971;SDS011;64651;47.540;19.088;2023-05-25T15:35:08;11.77;;;10.68;;
75971;SDS011;64651;47.540;19.088;2023-05-25T15:40:11;11.68;;;10.48;;
75971;SDS011;64651;47.540;19.088;2023-05-25T15:45:13;11.20;;;9.77;;
75971;SDS011;64651;47.540;19.088;2023-05-25T15:50:16;9.85;;;8.75;;
75971;SDS011;64651;47.540;19.088;2023-05-25T15:55:18;12.17;;;9.33;;
75971;SDS011;64651;47.540;19.088;2023-05-25T16:00:21;10.52;;;8.65;;
75971;SDS011;64651;47.540;19.088;2023-05-25T16:05:23;11.68;;;9.45;;
75971;SDS011;64651;47.540;19.088;2023-05-25T16:10:26;11.60;;;8.60;;
75971;SDS011;64651;47.540;19.088;2023-05-25T16:15:28;9.50;;;7.55;;
75971;SDS011;64651;47.540;19.088;2023-05-25T16:20:30;9.87;;;8.00;;
75971;SDS011;64651;47.540;19.088;2023-05-25T16:25:33;9.80;;;7.55;;
75971;SDS011;64651;47.540;19.088;2023-05-25T16:30:35;11.15;;;8.23;;
75971;SDS011;64651;47.540;19.088;2023-05-25T16:35:37;10.17;;;8.20;;
75971;SDS011;64651;47.540;19.088;2023-05-25T16:40:40;10.20;;;7.75;;
75971;SDS011;64651;47.540;19.088;2023-05-25T16:45:42;10.50;;;7.80;;
75971;SDS011;64651;47.540;19.088;2023-05-25T16:50:45;11.30;;;7.90;;
75971;SDS011;64651;47.540;19.088;2023-05-25T16:55:47;12.02;;;8.68;;
75971;SDS011;64651;47.540;19.088;2023-05-25T17:00:49;10.53;;;7.67;;
75971;SDS011;64651;47.540;19.088;2023-05-25T17:05:52;11.85;;;7.57;;
75971;SDS011;64651;47.540;19.088;2023-05-25T17:10:54;11.93;;;7.90;;
75971;SDS011;64651;47.540;19.088;2023-05-25T17:15:57;11.57;;;7.90;;
75971;SDS011;64651;47.540;19.088;2023-05-25T17:21:00;10.85;;;7.32;;
75971;SDS011;64651;47.540;19.088;2023-05-25T17:26:02;10.80;;;6.90;;
75971;SDS011;64651;47.540;19.088;2023-05-25T17:31:05;10.70;;;7.10;;
75971;SDS011;64651;47.540;19.088;2023-05-25T17:36:10;11.87;;;7.40;;
75971;SDS011;64651;47.540;19.088;2023-05-25T17:41:12;11.63;;;6.97;;
75971;SDS011;64651;47.540;19.088;2023-05-25T17:46:15;11.00;;;6.85;;
75971;SDS011;64651;47.540;19.088;2023-05-25T17:51:19;11.03;;;6.80;;
75971;SDS011;64651;47.540;19.088;2023-05-25T17:56:21;10.18;;;6.97;;
75971;SDS011;64651;47.540;19.088;2023-05-25T18:01:23;11.27;;;6.60;;
75971;SDS011;64651;47.540;19.088;2023-05-25T18:06:26;11.55;;;7.32;;
75971;SDS011;64651;47.540;19.088;2023-05-25T18:11:30;11.70;;;7.10;;
75971;SDS011;64651;47.540;19.088;2023-05-25T18:16:34;12.87;;;7.23;;
75971;SDS011;64651;47.540;19.088;2023-05-25T18:21:42;12.68;;;7.53;;
75971;SDS011;64651;47.540;19.088;2023-05-25T18:26:44;14.13;;;7.73;;
75971;SDS011;64651;47.540;19.088;2023-05-25T18:31:47;12.73;;;7.68;;
75971;SDS011;64651;47.540;19.088;2023-05-25T18:36:49;12.30;;;7.60;;
75971;SDS011;64651;47.540;19.088;2023-05-25T18:41:52;13.87;;;8.17;;
75971;SDS011;64651;47.540;19.088;2023-05-25T18:46:54;13.23;;;8.00;;
75971;SDS011;64651;47.540;19.088;2023-05-25T18:51:57;15.70;;;9.07;;
75971;SDS011;64651;47.540;19.088;2023-05-25T18:57:00;14.75;;;8.70;;
75971;SDS011;64651;47.540;19.088;2023-05-25T19:02:03;16.37;;;9.75;;
75971;SDS011;64651;47.540;19.088;2023-05-25T19:07:06;15.03;;;9.03;;
75971;SDS011;64651;47.540;19.088;2023-05-25T19:12:08;14.07;;;8.77;;
75971;SDS011;64651;47.540;19.088;2023-05-25T19:17:11;13.90;;;8.80;;
75971;SDS011;64651;47.540;19.088;2023-05-25T19:22:13;14.68;;;8.90;;
75971;SDS011;64651;47.540;19.088;2023-05-25T19:27:15;14.82;;;8.93;;
75971;SDS011;64651;47.540;19.088;2023-05-25T19:32:20;15.13;;;9.30;;
75971;SDS011;64651;47.540;19.088;2023-05-25T19:37:23;17.42;;;9.23;;
75971;SDS011;64651;47.540;19.088;2023-05-25T19:42:25;15.17;;;9.43;;
75971;SDS011;64651;47.540;19.088;2023-05-25T19:47:27;15.02;;;9.10;;
75971;SDS011;64651;47.540;19.088;2023-05-25T19:52:30;15.65;;;9.80;;
75971;SDS011;64651;47.540;19.088;2023-05-25T19:57:32;14.40;;;9.80;;
75971;SDS011;64651;47.540;19.088;2023-05-25T20:02:34;15.80;;;9.35;;
75971;SDS011;64651;47.540;19.088;2023-05-25T20:07:37;15.23;;;10.23;;
75971;SDS011;64651;47.540;19.088;2023-05-25T20:12:39;16.02;;;9.75;;
75971;SDS011;64651;47.540;19.088;2023-05-25T20:17:41;16.20;;;9.98;;
75971;SDS011;64651;47.540;19.088;2023-05-25T20:22:44;15.80;;;9.70;;
75971;SDS011;64651;47.540;19.088;2023-05-25T20:27:46;14.02;;;9.63;;
75971;SDS011;64651;47.540;19.088;2023-05-25T20:32:48;17.47;;;9.67;;
75971;SDS011;64651;47.540;19.088;2023-05-25T20:37:51;18.20;;;9.82;;
75971;SDS011;64651;47.540;19.088;2023-05-25T20:42:53;16.73;;;9.93;;
75971;SDS011;64651;47.540;19.088;2023-05-25T20:47:59;15.30;;;9.25;;
75971;SDS011;64651;47.540;19.088;2023-05-25T20:53:02;16.00;;;9.57;;
75971;SDS011;64651;47.540;19.088;2023-05-25T20:58:04;16.83;;;10.10;;
75971;SDS011;64651;47.540;19.088;2023-05-25T21:03:06;15.55;;;9.75;;
75971;SDS011;64651;47.540;19.088;2023-05-25T21:08:09;17.50;;;9.63;;
75971;SDS011;64651;47.540;19.088;2023-05-25T21:13:12;16.98;;;10.13;;
75971;SDS011;64651;47.540;19.088;2023-05-25T21:18:14;15.85;;;9.85;;
75971;SDS011;64651;47.540;19.088;2023-05-25T21:23:16;16.73;;;9.60;;
75971;SDS011;64651;47.540;19.088;2023-05-25T21:28:19;15.23;;;9.55;;
75971;SDS011;64651;47.540;19.088;2023-05-25T21:33:21;16.95;;;10.65;;
75971;SDS011;64651;47.540;19.088;2023-05-25T21:38:23;17.42;;;9.93;;
75971;SDS011;64651;47.540;19.088;2023-05-25T21:43:25;17.23;;;10.02;;
75971;SDS011;64651;47.540;19.088;2023-05-25T21:48:28;18.00;;;10.27;;
75971;SDS011;64651;47.540;19.088;2023-05-25T21:53:30;16.40;;;9.88;;
75971;SDS011;64651;47.540;19.088;2023-05-25T21:58:32;17.58;;;10.10;;
75971;SDS011;64651;47.540;19.088;2023-05-25T22:03:35;17.90;;;10.50;;
75971;SDS011;64651;47.540;19.088;2023-05-25T22:08:37;16.08;;;9.60;;
75971;SDS011;64651;47.540;19.088;2023-05-25T22:13:39;17.17;;;9.27;;
75971;SDS011;64651;47.540;19.088;2023-05-25T22:18:41;17.90;;;10.70;;
75971;SDS011;64651;47.540;19.088;2023-05-25T22:23:44;17.45;;;10.88;;
75971;SDS011;64651;47.540;19.088;2023-05-25T22:28:46;16.40;;;10.30;;
75971;SDS011;64651;47.540;19.088;2023-05-25T22:33:48;17.55;;;10.13;;
75971;SDS011;64651;47.540;19.088;2023-05-25T22:38:51;19.77;;;10.40;;
75971;SDS011;64651;47.540;19.088;2023-05-25T22:43:53;17.52;;;10.50;;
75971;SDS011;64651;47.540;19.088;2023-05-25T22:48:55;16.90;;;10.52;;
75971;SDS011;64651;47.540;19.088;2023-05-25T22:53:57;19.58;;;10.82;;
75971;SDS011;64651;47.540;19.088;2023-05-25T22:59:00;18.05;;;10.02;;
75971;SDS011;64651;47.540;19.088;2023-05-25T23:04:02;20.83;;;10.73;;
75971;SDS011;64651;47.540;19.088;2023-05-25T23:09:04;16.67;;;10.43;;
75971;SDS011;64651;47.540;19.088;2023-05-25T23:14:07;17.70;;;10.35;;
75971;SDS011;64651;47.540;19.088;2023-05-25T23:19:11;16.73;;;10.85;;
75971;SDS011;64651;47.540;19.088;2023-05-25T23:24:14;18.55;;;9.70;;
75971;SDS011;64651;47.540;19.088;2023-05-25T23:29:16;16.23;;;10.77;;
75971;SDS011;64651;47.540;19.088;2023-05-25T23:34:18;19.50;;;10.23;;
75971;SDS011;64651;47.540;19.088;2023-05-25T23:39:20;18.17;;;10.73;;
75971;SDS011;64651;47.540;19.088;2023-05-25T23:44:23;16.55;;;10.25;;
75971;SDS011;64651;47.540;19.088;2023-05-25T23:49:25;16.42;;;9.82;;
75971;SDS011;64651;47.540;19.088;2023-05-25T23:54:27;18.40;;;10.93;;
75971;SDS011;64651;47.540;19.088;2023-05-25T23:59:29;18.02;;;10.25;;
